DW9501 Weather Reports


Display with metric or nautical units.
time (UTC)temp
F
wind
direction
speed
MPH
gust
MPH
rain 1hr
in
rain 24hr
in
rain mn
in
humidity
%
barometer
mb
20260505195044 53 262 0.0 4.0 0.00 0.00 0.00 73 1006.8
20260505191844 57 234 2.0 6.0 0.00 0.00 0.00 57 1005.8
20260505185731 58 236 3.0 8.0 0.00 0.00 0.00 52 1005.5
20260505184709 59 87 2.0 9.0 0.00 0.00 0.00 52 1005.3
20260505183634 59 264 2.0 9.0 0.00 0.00 0.00 52 1005.2
20260505182608 60 260 2.0 5.0 0.00 0.00 0.00 53 1005.1
20260505181630 60 229 2.0 6.0 0.00 0.00 0.00 52 1004.8
20260505180620 60 288 2.0 7.0 0.00 0.00 0.00 53 1004.7
20260505175633 60 275 3.0 7.0 0.00 0.00 0.00 53 1004.4
20260505174643 61 256 3.0 7.0 0.00 0.00 0.00 53 1004.4
20260505173636 62 255 2.0 7.0 0.00 0.00 0.00 54 1004.1
20260505172608 62 277 1.0 5.0 0.00 0.00 0.00 57 1003.8
20260505171541 62 300 2.0 5.0 0.00 0.00 0.00 58 1003.8
20260505170541 62 305 2.0 7.0 0.00 0.00 0.00 58 1003.6
20260505165555 61 257 2.0 7.0 0.00 0.00 0.00 60 1003.4
20260505164543 61 298 2.0 5.0 0.00 0.00 0.00 62 1003.4
20260505163520 61 260 2.0 6.0 0.00 0.00 0.00 64 1003.4
20260505162529 60 172 2.0 6.0 0.00 0.00 0.00 67 1003.7
20260505161513 60 277 1.0 5.0 0.00 0.00 0.00 68 1003.8
20260505160440 60 240 1.0 4.0 0.00 0.00 0.00 71 1003.7
20260505151129 58 269 0.0 3.0 0.00 0.00 0.00 70 1003.1
20260505150132 58 254 0.0 3.0 0.00 0.00 0.00 69 1002.6
20260505140110 63 315 2.0 6.0 0.00 0.00 0.00 72 1001.4
20260505130132 63 234 0.0 4.0 0.00 0.00 0.00 73 1000.6
20260505122958 62 279 1.0 4.0 0.00 0.00 0.00 74 999.7
20260505122010 62 271 0.0 3.0 0.00 0.00 0.00 74 999.6
20260505120952 61 213 0.0 4.0 0.00 0.00 0.00 75 999.8
20260505114847 60 215 0.0 2.0 0.00 0.00 0.00 78 1000.0
20260505113824 59 256 0.0 0.0 0.00 0.00 0.00 79 999.8
20260505112807 59 219 0.0 1.0 0.00 0.00 0.00 79 999.6
20260505111754 59 212 0.0 1.0 0.00 0.00 0.00 79 999.5
20260505110809 59 253 1.0 3.0 0.00 0.00 0.00 79 999.5
20260505101734 59 252 1.0 7.0 0.00 0.00 0.00 79 998.8
20260505100728 59 207 1.0 7.0 0.00 0.00 0.00 79 998.7
20260505095751 59 219 0.0 3.0 0.00 0.00 0.00 78 998.6
20260505094806 59 182 0.0 2.0 0.00 0.00 0.00 77 998.4
20260505093751 60 174 0.0 3.0 0.00 0.00 0.00 76 998.3
20260505092804 60 228 0.0 3.0 0.00 0.00 0.00 76 998.4
20260505091812 61 252 0.0 2.0 0.00 0.00 0.00 76 998.5
20260505085615 61 224 0.0 2.0 0.00 0.00 0.00 75 998.4
20260505084612 62 165 0.0 1.0 0.00 0.00 0.00 73 998.2
20260505083547 62 209 1.0 4.0 0.00 0.00 0.00 72 998.3
20260505082609 63 249 1.0 5.0 0.00 0.00 0.00 72 998.5
20260505081534 63 200 2.0 8.0 0.00 0.00 0.00 72 998.5
20260505080546 63 184 2.0 8.0 0.00 0.00 0.00 71 998.8
20260505075611 63 220 1.0 6.0 0.00 0.00 0.00 71 998.8
20260505074550 63 228 1.0 5.0 0.00 0.00 0.00 71 998.8
20260505073607 63 180 0.0 5.0 0.00 0.00 0.00 70 998.9
20260505072622 63 261 1.0 7.0 0.00 0.00 0.00 70 998.9
20260505071623 63 95 2.0 7.0 0.00 0.00 0.00 69 998.8
20260505065519 63 228 1.0 5.0 0.00 0.00 0.00 69 998.8
20260505064501 63 181 1.0 8.0 0.00 0.00 0.00 70 998.9
20260505061234 60 185 0.0 1.0 0.00 0.00 0.00 74 999.3
20260505060220 60 212 0.0 2.0 0.00 0.00 0.00 74 999.4
20260505055222 60 260 0.0 0.0 0.00 0.00 0.00 74 999.6
20260505054218 60 219 0.0 0.0 0.00 0.00 0.00 74 999.5
20260505053234 60 219 0.0 1.0 0.00 0.00 0.00 74 999.5
20260505052250 60 226 0.0 1.0 0.00 0.00 0.00 74 999.4
20260505051311 60 171 0.0 0.0 0.00 0.00 0.00 74 999.4
20260505050333 61 51 0.0 1.0 0.00 0.00 0.00 72 999.5
20260505041341 62 217 0.0 6.0 0.00 0.00 0.00 70 999.5
20260505040353 62 215 2.0 6.0 0.00 0.00 0.00 69 999.5
20260505035409 62 181 1.0 5.0 0.00 0.00 0.00 68 999.6
20260505034421 62 160 1.0 7.0 0.00 0.00 0.00 67 999.7
20260505033434 62 254 1.0 7.0 0.00 0.00 0.00 66 999.8
20260505032413 62 219 0.0 6.0 0.00 0.00 0.00 64 999.9
20260505031423 62 236 1.0 6.0 0.00 0.00 0.00 62 1000.0
20260505030413 62 254 1.0 9.0 0.00 0.00 0.00 60 1000.1
20260505024239 63 246 0.0 6.0 0.00 0.00 0.00 56 1000.4
20260505023245 63 252 1.0 7.0 0.00 0.00 0.00 54 1000.4
20260505022245 64 203 1.0 7.0 0.00 0.00 0.00 51 1000.7
20260505020127 65 203 0.0 3.0 0.00 0.00 0.00 46 1000.7
20260505015149 65 210 0.0 3.0 0.00 0.00 0.00 44 1000.6
20260505014157 66 252 1.0 4.0 0.00 0.00 0.00 43 1000.5
20260505012006 67 174 1.0 5.0 0.00 0.00 0.00 39 1000.4
20260505005911 68 210 1.0 7.0 0.00 0.00 0.00 37 1000.4
20260505004845 69 137 2.0 10.0 0.00 0.00 0.00 36 1000.2
20260505003854 69 225 2.0 10.0 0.00 0.00 0.00 36 1000.3
20260505002851 69 169 2.0 9.0 0.00 0.00 0.00 36 1000.3
20260505001907 69 218 2.0 9.0 0.00 0.00 0.00 36 1000.4
20260505000931 70 184 2.0 7.0 0.00 0.00 0.00 36 1000.5
20260504234715 70 187 3.0 8.0 0.00 0.00 0.00 36 1000.7
20260504233722 70 227 2.0 10.0 0.00 0.00 0.00 36 1000.8
20260504232711 71 186 3.0 12.0 0.00 0.00 0.00 36 1000.8
20260504231701 71 219 3.0 12.0 0.00 0.00 0.00 36 1000.9
20260504230658 71 215 1.0 10.0 0.00 0.00 0.00 36 1000.9
20260504225630 71 235 2.0 11.0 0.00 0.00 0.00 36 1001.0
20260504224630 72 241 3.0 11.0 0.00 0.00 0.00 36 1000.9
20260504223614 72 174 3.0 13.0 0.00 0.00 0.00 36 1000.8
20260504222554 72 182 4.0 13.0 0.00 0.00 0.00 36 1001.0
20260504221613 72 230 3.0 13.0 0.00 0.00 0.00 36 1001.0
20260504220622 72 280 3.0 16.0 0.00 0.00 0.00 37 1001.0
20260504215623 72 248 4.0 16.0 0.00 0.00 0.00 36 1001.1
20260504214554 73 272 4.0 12.0 0.00 0.00 0.00 35 1000.9
20260504213519 74 219 3.0 13.0 0.00 0.00 0.00 35 1000.9
20260504212528 74 245 4.0 14.0 0.00 0.00 0.00 34 1000.6
20260504210354 73 196 3.0 12.0 0.00 0.00 0.00 36 1000.5
20260504205334 73 255 4.0 13.0 0.00 0.00 0.00 37 1000.6
20260504203237 72 184 4.0 11.0 0.00 0.00 0.00 39 1000.7
20260504202236 72 250 2.0 8.0 0.00 0.00 0.00 40 1000.9
20260504201213 71 229 2.0 7.0 0.00 0.00 0.00 44 1000.8
20260504200222 70 219 1.0 7.0 0.00 0.00 0.00 47 1000.9